createdAt,value
2018-04-14T00:01:52.306Z,44.30
2018-04-14T00:04:19.168Z,45.83
2018-04-14T00:06:46.089Z,45.92
2018-04-14T00:09:12.990Z,46.40
2018-04-14T00:11:39.822Z,44.28
2018-04-14T00:14:07.035Z,45.15
2018-04-14T00:16:33.915Z,46.55
2018-04-14T00:19:00.753Z,46.40
2018-04-14T00:21:27.610Z,44.38
2018-04-14T00:23:54.446Z,45.17
2018-04-14T00:26:21.286Z,47.17
2018-04-14T00:28:48.176Z,45.22
2018-04-14T00:31:15.345Z,49.67
2018-04-14T00:33:42.172Z,49.15
2018-04-14T00:36:09.343Z,46.85
2018-04-14T00:38:36.177Z,48.65
2018-04-14T00:41:03.027Z,47.87
2018-04-14T00:43:29.886Z,48.38
2018-04-14T00:45:56.955Z,48.30
2018-04-14T00:48:23.827Z,47.03
2018-04-14T00:50:50.661Z,46.80
2018-04-14T00:53:23.790Z,47.25
2018-04-14T00:55:50.665Z,49.85
2018-04-14T00:58:17.784Z,49.37
2018-04-14T01:00:44.658Z,50.80
2018-04-14T01:03:11.890Z,48.53
2018-04-14T01:05:38.775Z,48.80
2018-04-14T01:08:05.987Z,48.80
2018-04-14T01:10:32.870Z,48.67
2018-04-14T01:12:59.968Z,50.67
2018-04-14T01:15:26.839Z,50.70
2018-04-14T01:17:53.950Z,48.63
2018-04-14T01:20:21.013Z,48.00
2018-04-14T01:22:48.198Z,49.13
2018-04-14T01:25:15.038Z,50.17
2018-04-14T01:27:42.159Z,48.75
2018-04-14T01:30:08.986Z,50.27
2018-04-14T01:32:36.152Z,49.80
2018-04-14T01:35:03.303Z,52.00
2018-04-14T01:37:30.134Z,53.27
2018-04-14T01:39:56.998Z,53.75
2018-04-14T01:42:23.876Z,54.17
2018-04-14T01:44:50.743Z,54.08
2018-04-14T01:47:17.930Z,54.40
2018-04-14T01:49:44.773Z,55.25
2018-04-14T01:52:11.651Z,57.10
2018-04-14T01:54:38.775Z,55.97
2018-04-14T01:57:05.919Z,56.67
2018-04-14T01:59:32.750Z,59.03
2018-04-14T02:01:59.606Z,60.83
2018-04-14T02:04:26.462Z,59.63
2018-04-14T02:06:53.344Z,60.38
2018-04-14T02:09:20.270Z,59.55
2018-04-14T02:11:47.143Z,56.00
2018-04-14T02:14:14.016Z,57.20
2018-04-14T02:16:40.902Z,57.17
2018-04-14T02:19:08.035Z,56.15
2018-04-14T02:21:34.865Z,55.78
2018-04-14T02:24:02.015Z,42.92
2018-04-14T02:26:29.165Z,43.90
2018-04-14T02:28:56.009Z,50.38
2018-04-14T02:31:22.887Z,50.35
2018-04-14T02:33:49.739Z,46.20
2018-04-14T02:36:16.621Z,46.83
2018-04-14T02:38:43.789Z,49.83
2018-04-14T02:41:10.646Z,46.13
2018-04-14T02:43:37.777Z,44.53
2018-04-14T02:46:04.663Z,43.57
2018-04-14T02:48:31.527Z,45.38
2018-04-14T02:50:58.620Z,44.40
2018-04-14T02:53:25.485Z,46.53
2018-04-14T02:55:52.351Z,45.92
2018-04-14T02:58:19.178Z,46.50
2018-04-14T03:00:46.026Z,46.80
2018-04-14T03:03:13.254Z,47.90
2018-04-14T03:05:40.114Z,48.40
2018-04-14T03:08:06.999Z,50.38
2018-04-14T03:10:33.899Z,50.77
2018-04-14T03:13:00.763Z,53.38
2018-04-14T03:15:27.979Z,53.20
2018-04-14T03:17:54.810Z,55.00
2018-04-14T03:20:21.888Z,56.50
2018-04-14T03:22:49.019Z,58.60
2018-04-14T03:25:16.166Z,58.15
2018-04-14T03:27:43.222Z,59.87
2018-04-14T03:30:10.129Z,56.80
2018-04-14T03:32:37.315Z,55.63
2018-04-14T03:35:04.195Z,57.60
2018-04-14T03:37:31.301Z,56.80
2018-04-14T03:39:58.159Z,58.67
2018-04-14T03:42:24.998Z,59.60
2018-04-14T03:44:51.885Z,60.58
2018-04-14T03:47:18.980Z,60.67
2018-04-14T03:49:45.862Z,62.33
2018-04-14T03:52:12.709Z,62.72
2018-04-14T03:54:39.822Z,62.65
2018-04-14T03:57:06.691Z,66.62
2018-04-14T03:59:33.561Z,66.57
2018-04-14T04:02:01.574Z,66.03
2018-04-14T04:04:28.733Z,68.80
2018-04-14T04:06:55.598Z,70.85
2018-04-14T04:09:22.727Z,65.85
2018-04-14T04:11:49.582Z,65.37
2018-04-14T04:14:16.410Z,64.62
2018-04-14T04:16:43.254Z,63.78
2018-04-14T04:19:16.079Z,63.47
2018-04-14T04:21:48.847Z,61.92
2018-04-14T04:24:21.294Z,59.45
2018-04-14T04:26:48.142Z,60.72
2018-04-14T04:29:14.758Z,59.22
2018-04-14T04:31:41.413Z,59.38
2018-04-14T04:34:08.459Z,60.65
2018-04-14T04:36:35.107Z,58.97
2018-04-14T04:39:02.041Z,59.92
2018-04-14T04:41:28.939Z,57.72
2018-04-14T04:43:55.834Z,58.72
2018-04-14T04:46:22.469Z,57.40
2018-04-14T04:48:49.187Z,58.10
2018-04-14T04:51:15.763Z,56.35
2018-04-14T04:53:42.695Z,57.47
2018-04-14T04:56:09.305Z,56.55
2018-04-14T04:58:36.432Z,56.10
2018-04-14T05:01:03.081Z,56.75
2018-04-14T05:03:29.730Z,55.55
2018-04-14T05:05:56.378Z,57.15
2018-04-14T05:08:23.341Z,59.33
2018-04-14T05:10:49.958Z,59.53
2018-04-14T05:13:16.973Z,57.92
2018-04-14T05:15:43.623Z,56.28
2018-04-14T05:18:10.272Z,53.73
2018-04-14T05:20:36.912Z,52.50
2018-04-14T05:23:03.574Z,50.60
2018-04-14T05:25:30.212Z,48.47
2018-04-14T05:27:56.826Z,45.03
2018-04-14T05:30:23.810Z,42.95
2018-04-14T05:32:50.690Z,40.15
2018-04-14T05:35:17.590Z,41.90
2018-04-14T05:37:44.222Z,42.00
2018-04-14T05:40:11.188Z,43.13
2018-04-14T05:42:38.121Z,40.90
2018-04-14T05:45:04.803Z,40.05
2018-04-14T05:47:31.711Z,39.47
2018-04-14T05:49:58.357Z,37.20
2018-04-14T05:52:25.290Z,37.67
2018-04-14T05:54:52.246Z,32.13
2018-04-14T05:57:18.862Z,32.17
2018-04-14T05:59:45.531Z,31.67
2018-04-14T06:02:12.175Z,31.37
2018-04-14T06:04:39.094Z,28.73
2018-04-14T06:07:05.759Z,28.62
2018-04-14T06:09:32.370Z,30.57
2018-04-14T06:11:59.321Z,28.33
2018-04-14T06:14:26.265Z,28.33
2018-04-14T06:16:52.921Z,28.75
2018-04-14T06:19:19.845Z,27.13
2018-04-14T06:21:46.794Z,25.10
2018-04-14T06:24:13.452Z,25.80
2018-04-14T06:26:40.055Z,23.02
2018-04-14T06:29:06.696Z,25.27
2018-04-14T06:31:33.334Z,26.08
2018-04-14T06:34:00.002Z,23.95
2018-04-14T06:36:26.670Z,23.50
2018-04-14T06:38:53.570Z,22.95
2018-04-14T06:41:20.263Z,20.95
2018-04-14T06:43:47.259Z,25.73
2018-04-14T06:46:13.883Z,22.62
2018-04-14T06:48:40.848Z,20.20
2018-04-14T06:51:07.474Z,19.33
2018-04-14T06:53:34.086Z,19.05
2018-04-14T06:56:01.071Z,19.02
2018-04-14T06:58:27.734Z,17.92
2018-04-14T07:00:54.362Z,17.52
2018-04-14T07:03:21.006Z,17.95
2018-04-14T07:05:47.647Z,16.70
2018-04-14T07:08:14.327Z,17.20
2018-04-14T07:10:40.948Z,16.73
2018-04-14T07:13:07.616Z,15.17
2018-04-14T07:15:34.225Z,14.70
2018-04-14T07:18:01.118Z,13.95
2018-04-14T07:20:28.062Z,13.68
2018-04-14T07:22:55.015Z,12.70
2018-04-14T07:25:21.669Z,11.45
2018-04-14T07:27:48.722Z,11.25
2018-04-14T07:30:15.365Z,12.00
2018-04-14T07:32:42.014Z,11.50
2018-04-14T07:35:08.650Z,11.30
2018-04-14T07:37:35.503Z,11.10
2018-04-14T07:40:02.160Z,10.30
2018-04-14T07:42:28.794Z,9.65
2018-04-14T07:44:55.409Z,10.10
2018-04-14T07:47:22.377Z,14.60
2018-04-14T07:49:49.372Z,10.85
2018-04-14T07:52:16.016Z,10.13
2018-04-14T07:54:42.659Z,10.48
2018-04-14T07:57:09.335Z,10.65
2018-04-14T07:59:36.227Z,10.48
2018-04-14T08:02:02.876Z,10.70
2018-04-14T08:04:29.767Z,10.40
2018-04-14T08:06:56.389Z,10.60
2018-04-14T08:09:23.292Z,10.70
2018-04-14T08:11:50.271Z,10.20
2018-04-14T08:14:17.179Z,9.90
2018-04-14T08:16:44.127Z,9.90
2018-04-14T08:19:11.036Z,10.60
2018-04-14T08:21:37.735Z,9.10
2018-04-14T08:24:04.655Z,8.80
2018-04-14T08:26:31.275Z,8.32
2018-04-14T08:28:57.987Z,8.40
2018-04-14T08:31:24.611Z,7.80
2018-04-14T08:33:51.251Z,7.95
2018-04-14T08:36:17.850Z,7.80
2018-04-14T08:38:44.836Z,7.10
2018-04-14T08:41:11.459Z,9.02
2018-04-14T08:43:38.102Z,8.05
2018-04-14T08:46:05.006Z,7.20
2018-04-14T08:52:39.222Z,7.22
2018-04-14T08:55:06.090Z,6.97
2018-04-14T08:57:32.683Z,6.62
2018-04-14T08:59:59.314Z,6.80
2018-04-14T09:02:25.953Z,6.70
2018-04-14T09:04:52.529Z,6.60
2018-04-14T09:07:19.385Z,7.40
2018-04-14T09:09:46.013Z,6.93
2018-04-14T09:12:12.605Z,5.87
2018-04-14T09:14:39.427Z,6.18
2018-04-14T09:17:06.005Z,6.03
2018-04-14T09:19:32.865Z,5.90
2018-04-14T09:21:59.636Z,5.90
2018-04-14T09:24:26.668Z,8.43
2018-04-14T09:26:53.506Z,5.93
2018-04-14T09:29:20.321Z,5.10
2018-04-14T09:31:47.157Z,5.47
2018-04-14T09:34:13.937Z,5.25
2018-04-14T09:36:40.789Z,5.15
2018-04-14T09:39:07.829Z,5.30
2018-04-14T09:41:34.646Z,5.35
2018-04-14T09:44:01.478Z,5.20
2018-04-14T09:46:28.568Z,5.75
2018-04-14T09:48:55.377Z,5.28
2018-04-14T09:51:22.205Z,5.20
2018-04-14T09:53:49.032Z,4.97
2018-04-14T09:56:15.837Z,5.20
2018-04-14T09:58:42.612Z,5.10
2018-04-14T10:01:09.733Z,5.53
2018-04-14T10:03:36.529Z,5.50
2018-04-14T10:06:03.377Z,9.27
2018-04-14T10:08:30.168Z,8.25
2018-04-14T10:10:56.976Z,6.50
2018-04-14T10:13:23.795Z,6.10
2018-04-14T10:15:50.568Z,6.30
2018-04-14T10:18:17.419Z,6.10
2018-04-14T10:20:44.225Z,5.80
2018-04-14T10:23:11.067Z,5.60
2018-04-14T10:25:38.162Z,6.30
2018-04-14T10:28:05.002Z,6.47
2018-04-14T10:30:31.784Z,7.03
2018-04-14T10:32:58.569Z,7.10
2018-04-14T10:35:25.411Z,7.10
2018-04-14T10:37:52.522Z,7.12
2018-04-14T10:40:19.333Z,7.45
2018-04-14T10:42:46.143Z,7.40
2018-04-14T10:45:13.214Z,11.25
2018-04-14T10:47:40.365Z,8.48
2018-04-14T10:50:07.175Z,7.87
2018-04-14T10:52:34.005Z,8.00
2018-04-14T10:55:01.102Z,8.60
2018-04-14T10:57:27.937Z,8.02
2018-04-14T10:59:54.988Z,7.45
2018-04-14T11:02:22.140Z,7.93
2018-04-14T11:04:48.943Z,8.10
2018-04-14T11:07:16.033Z,7.37
2018-04-14T11:09:43.105Z,7.28
2018-04-14T11:12:09.892Z,7.97
2018-04-14T11:14:36.968Z,7.90
2018-04-14T11:17:03.777Z,7.97
2018-04-14T11:19:30.585Z,7.43
2018-04-14T11:21:57.702Z,7.00
2018-04-14T11:24:24.758Z,7.10
2018-04-14T11:26:51.800Z,7.40
2018-04-14T11:29:18.847Z,6.65
2018-04-14T11:31:45.652Z,7.00
2018-04-14T11:34:12.432Z,6.80
2018-04-14T11:36:39.273Z,7.20
2018-04-14T11:39:06.326Z,6.72
2018-04-14T11:41:33.129Z,6.00
2018-04-14T11:43:59.934Z,6.50
2018-04-14T11:46:26.716Z,6.22
2018-04-14T11:48:53.557Z,6.80
2018-04-14T11:51:20.339Z,7.00
2018-04-14T11:53:47.193Z,6.80
2018-04-14T11:56:14.006Z,6.75
2018-04-14T11:58:40.817Z,6.43
2018-04-14T12:01:07.649Z,6.80
2018-04-14T12:03:34.499Z,7.40
2018-04-14T12:06:01.359Z,6.60
2018-04-14T12:08:28.224Z,6.60
2018-04-14T12:10:55.038Z,6.72
2018-04-14T12:13:21.911Z,6.95
2018-04-14T12:15:49.062Z,7.07
2018-04-14T12:18:18.083Z,7.00
2018-04-14T12:20:45.231Z,6.28
2018-04-14T12:23:12.383Z,5.50
2018-04-14T12:25:39.757Z,5.50
2018-04-14T12:28:06.587Z,5.03
2018-04-14T12:30:33.898Z,4.80
2018-04-14T12:33:00.765Z,5.00
2018-04-14T12:35:27.593Z,4.62
2018-04-14T12:37:59.159Z,3.83
2018-04-14T12:40:26.321Z,3.90
2018-04-14T12:42:53.157Z,4.20
2018-04-14T12:45:20.065Z,4.10
2018-04-14T12:47:47.053Z,4.20
2018-04-14T12:50:13.876Z,4.40
2018-04-14T12:52:41.132Z,4.60
2018-04-14T12:55:08.033Z,5.00
2018-04-14T12:57:35.144Z,4.30
2018-04-14T13:00:02.030Z,4.62
2018-04-14T13:02:29.143Z,3.80
2018-04-14T13:04:56.016Z,3.72
2018-04-14T13:07:23.677Z,3.37
2018-04-14T13:09:50.522Z,3.90
2018-04-14T13:12:17.382Z,3.50
2018-04-14T13:14:44.263Z,4.20
2018-04-14T13:17:11.432Z,4.15
2018-04-14T13:19:38.687Z,4.10
2018-04-14T13:22:05.841Z,5.00
2018-04-14T13:24:32.661Z,5.70
2018-04-14T13:26:59.644Z,6.05
2018-04-14T13:29:26.520Z,6.85
2018-04-14T13:31:53.614Z,7.40
2018-04-14T13:34:21.073Z,8.40
2018-04-14T13:36:47.923Z,9.48
2018-04-14T13:39:15.075Z,9.33
2018-04-14T13:41:41.964Z,10.70
2018-04-14T13:44:08.832Z,10.93
2018-04-14T13:46:35.901Z,11.77
2018-04-14T13:49:02.754Z,11.80
2018-04-14T13:51:29.636Z,14.90
2018-04-14T13:53:56.466Z,14.70
2018-04-14T13:56:23.314Z,13.00
2018-04-14T13:58:50.139Z,13.48
2018-04-14T14:01:17.274Z,13.20
2018-04-14T14:03:44.178Z,13.73
2018-04-14T14:06:11.052Z,13.27
2018-04-14T14:08:38.218Z,12.52
2018-04-14T14:11:05.467Z,13.97
2018-04-14T14:13:32.491Z,12.10
2018-04-14T14:15:59.363Z,10.60
2018-04-14T14:18:26.227Z,11.10
2018-04-14T14:20:53.663Z,10.93
2018-04-14T14:23:20.498Z,12.93
2018-04-14T14:25:53.704Z,13.15
2018-04-14T14:28:29.479Z,13.45
2018-04-14T14:31:04.385Z,15.20
2018-04-14T14:33:40.584Z,19.48
2018-04-14T14:36:09.796Z,16.08
2018-04-14T14:38:40.203Z,15.95
2018-04-14T14:41:09.769Z,14.43
2018-04-14T14:43:36.634Z,14.93
2018-04-14T14:46:03.453Z,14.45
2018-04-14T14:48:30.690Z,12.17
2018-04-14T14:50:57.687Z,12.60
2018-04-14T14:53:24.806Z,11.80
2018-04-14T14:55:51.667Z,11.40
2018-04-14T14:58:18.798Z,10.88
2018-04-14T15:00:45.617Z,11.15
2018-04-14T15:03:12.797Z,10.87
2018-04-14T15:05:39.890Z,10.68
2018-04-14T15:08:06.998Z,11.32
2018-04-14T15:10:33.828Z,10.70
2018-04-14T15:13:00.678Z,11.07
2018-04-14T15:15:27.523Z,9.10
2018-04-14T15:17:54.379Z,9.20
2018-04-14T15:20:21.510Z,10.02
2018-04-14T15:22:48.365Z,8.68
2018-04-14T15:25:15.213Z,8.88
2018-04-14T15:27:42.055Z,9.00
2018-04-14T15:30:08.908Z,8.63
2018-04-14T15:32:35.733Z,8.55
2018-04-14T15:35:02.880Z,8.55
2018-04-14T15:37:30.031Z,8.98
2018-04-14T15:39:56.851Z,8.90
2018-04-14T15:42:23.715Z,9.88
2018-04-14T15:44:50.610Z,10.75
2018-04-14T15:47:17.665Z,10.27
2018-04-14T15:49:44.535Z,10.90
2018-04-14T15:52:11.407Z,10.88
2018-04-14T15:54:38.494Z,12.15
2018-04-14T15:57:05.375Z,12.25
2018-04-14T15:59:32.189Z,12.10
2018-04-14T16:01:59.067Z,12.37
2018-04-14T16:04:25.908Z,11.75
2018-04-14T16:06:52.961Z,12.10
2018-04-14T16:09:19.845Z,13.30
2018-04-14T16:11:46.687Z,12.70
2018-04-14T16:14:13.553Z,12.82
2018-04-14T16:16:40.751Z,13.57
2018-04-14T16:19:07.902Z,13.62
2018-04-14T16:21:35.046Z,14.85
2018-04-14T16:24:01.869Z,14.82
2018-04-14T16:26:28.759Z,14.73
2018-04-14T16:28:55.895Z,14.60
2018-04-14T16:31:22.791Z,15.48
2018-04-14T16:33:49.663Z,15.95
2018-04-14T16:36:16.830Z,16.27
2018-04-14T16:38:43.831Z,17.00
2018-04-14T16:41:10.977Z,16.80
2018-04-14T16:43:37.832Z,16.83
2018-04-14T16:46:04.657Z,16.67
2018-04-14T16:48:31.524Z,17.85
2018-04-14T16:50:58.354Z,16.83
2018-04-14T16:53:25.247Z,16.80
2018-04-14T16:55:52.113Z,16.33
2018-04-14T16:58:18.983Z,17.37
2018-04-14T17:00:46.094Z,18.25
2018-04-14T17:03:12.947Z,17.77
2018-04-14T17:05:39.804Z,17.50
2018-04-14T17:08:06.918Z,19.15
2018-04-14T17:10:33.724Z,20.00
2018-04-14T17:13:00.520Z,20.80
2018-04-14T17:15:27.324Z,20.80
2018-04-14T17:17:54.406Z,20.17
2018-04-14T17:20:21.233Z,21.00
2018-04-14T17:22:48.064Z,20.65
2018-04-14T17:25:14.905Z,20.30
2018-04-14T17:27:41.757Z,21.08
2018-04-14T17:30:08.944Z,20.88
2018-04-14T17:32:35.716Z,20.62
2018-04-14T17:35:02.532Z,21.55
2018-04-14T17:37:29.355Z,20.58
2018-04-14T17:39:56.425Z,20.62
2018-04-14T17:42:23.214Z,19.95
2018-04-14T17:44:50.029Z,21.30
2018-04-14T17:47:16.824Z,20.70
2018-04-14T17:49:43.665Z,20.52
2018-04-14T17:52:10.471Z,21.30
2018-04-14T17:54:37.262Z,19.75
2018-04-14T17:57:04.118Z,18.95
2018-04-14T17:59:31.129Z,19.30
2018-04-14T18:01:57.960Z,19.45
2018-04-14T18:04:24.774Z,18.80
2018-04-14T18:06:51.601Z,18.73
2018-04-14T18:09:18.429Z,19.30
2018-04-14T18:11:45.253Z,20.98
2018-04-14T18:14:12.097Z,20.65
2018-04-14T18:16:39.237Z,20.12
2018-04-14T18:19:06.034Z,19.70
2018-04-14T18:21:32.904Z,19.73
2018-04-14T18:23:59.974Z,21.15
2018-04-14T18:26:26.785Z,21.42
2018-04-14T18:28:53.623Z,21.02
2018-04-14T18:31:20.708Z,22.30
2018-04-14T18:33:47.569Z,23.10
2018-04-14T18:36:14.600Z,23.80
2018-04-14T18:38:41.407Z,22.23
2018-04-14T18:41:08.228Z,22.17
2018-04-14T18:43:35.038Z,23.25
2018-04-14T18:46:01.878Z,22.62
2018-04-14T18:48:28.908Z,24.67
2018-04-14T18:50:55.736Z,22.45
2018-04-14T18:53:22.546Z,23.83
2018-04-14T18:55:49.370Z,24.55
2018-04-14T18:58:16.176Z,23.77
2018-04-14T19:00:43.000Z,24.73
2018-04-14T19:03:10.076Z,25.25
2018-04-14T19:05:37.236Z,24.52
2018-04-14T19:08:04.274Z,25.17
2018-04-14T19:10:31.085Z,25.65
2018-04-14T19:12:57.913Z,24.98
2018-04-14T19:15:24.757Z,27.23
2018-04-14T19:17:51.554Z,26.23
2018-04-14T19:20:18.694Z,27.40
2018-04-14T19:22:45.515Z,27.20
2018-04-14T19:25:12.304Z,27.37
2018-04-14T19:27:39.398Z,28.50
2018-04-14T19:30:06.484Z,28.17
2018-04-14T19:32:33.320Z,27.35
2018-04-14T19:35:00.120Z,29.70
2018-04-14T19:37:27.003Z,28.23
2018-04-14T19:39:53.845Z,29.33
2018-04-14T19:42:20.893Z,27.90
2018-04-14T19:44:47.696Z,29.12
2018-04-14T19:47:14.485Z,30.58
2018-04-14T19:49:41.310Z,31.13
2018-04-14T19:52:08.133Z,30.83
2018-04-14T19:54:35.092Z,32.08
2018-04-14T19:57:01.909Z,33.03
2018-04-14T19:59:28.704Z,33.33
2018-04-14T20:01:55.516Z,33.50
2018-04-14T20:04:22.337Z,34.03
2018-04-14T20:06:49.164Z,35.00
2018-04-14T20:09:16.048Z,35.70
2018-04-14T20:11:42.872Z,35.65
2018-04-14T20:14:09.698Z,35.30
2018-04-14T20:16:36.561Z,36.72
2018-04-14T20:19:03.373Z,37.90
2018-04-14T20:21:30.203Z,37.60
2018-04-14T20:23:56.996Z,37.45
2018-04-14T20:26:23.792Z,37.67
2018-04-14T20:28:50.677Z,37.03
2018-04-14T20:31:17.510Z,37.90
2018-04-14T20:33:44.355Z,38.67
2018-04-14T20:36:11.163Z,38.53
2018-04-14T20:38:37.962Z,38.80
2018-04-14T20:41:04.812Z,38.42
2018-04-14T20:43:31.634Z,37.05
2018-04-14T20:45:58.440Z,35.85
2018-04-14T20:48:25.277Z,38.73
2018-04-14T20:50:52.084Z,37.03
2018-04-14T20:53:18.905Z,37.85
2018-04-14T20:55:45.989Z,39.65
2018-04-14T20:58:12.861Z,42.05
2018-04-14T21:00:39.682Z,41.60
2018-04-14T21:03:06.531Z,43.05
2018-04-14T21:05:33.367Z,42.00
2018-04-14T21:08:00.197Z,43.47
2018-04-14T21:10:27.005Z,44.50
2018-04-14T21:12:54.070Z,44.25
2018-04-14T21:15:21.096Z,44.28
2018-04-14T21:17:47.892Z,45.25
2018-04-14T21:20:14.944Z,46.00
2018-04-14T21:22:41.763Z,45.70
2018-04-14T21:25:08.610Z,44.85
2018-04-14T21:27:35.632Z,44.50
2018-04-14T21:30:02.473Z,47.97
2018-04-14T21:32:29.507Z,46.17
2018-04-14T21:34:56.337Z,47.87
2018-04-14T21:37:23.140Z,46.70
2018-04-14T21:39:50.178Z,47.20
2018-04-14T21:42:17.202Z,47.50
2018-04-14T21:44:44.014Z,46.37
2018-04-14T21:47:10.821Z,44.60
2018-04-14T21:49:37.672Z,44.67
2018-04-14T21:52:04.461Z,45.90
2018-04-14T21:54:31.256Z,44.80
2018-04-14T21:56:58.097Z,43.15
2018-04-14T21:59:24.936Z,43.80
2018-04-14T22:01:51.984Z,40.90
2018-04-14T22:04:19.036Z,41.80
2018-04-14T22:06:45.877Z,42.33
2018-04-14T22:09:12.700Z,41.55
2018-04-14T22:11:39.501Z,40.78
2018-04-14T22:14:06.341Z,40.60
2018-04-14T22:16:33.170Z,40.70
2018-04-14T22:19:00.302Z,40.70
2018-04-14T22:21:27.139Z,39.22
2018-04-14T22:23:53.933Z,40.00
2018-04-14T22:26:20.762Z,38.03
2018-04-14T22:28:47.588Z,38.60
2018-04-14T22:31:14.377Z,40.13
2018-04-14T22:33:41.201Z,39.70
2018-04-14T22:36:08.033Z,40.40
2018-04-14T22:38:35.141Z,40.92
2018-04-14T22:41:01.986Z,41.33
2018-04-14T22:43:28.827Z,41.25
2018-04-14T22:45:55.636Z,42.40
2018-04-14T22:48:22.428Z,40.67
2018-04-14T22:50:49.477Z,40.50
2018-04-14T22:53:16.613Z,39.63
2018-04-14T22:55:43.433Z,40.43
2018-04-14T22:58:10.250Z,39.90
2018-04-14T23:00:37.344Z,39.05
2018-04-14T23:03:04.173Z,39.22
2018-04-14T23:05:31.033Z,37.72
2018-04-14T23:07:57.820Z,39.15
2018-04-14T23:10:24.920Z,39.10
2018-04-14T23:12:51.745Z,40.50
2018-04-14T23:15:18.817Z,39.10
2018-04-14T23:17:45.642Z,39.33
2018-04-14T23:20:12.433Z,37.42
2018-04-14T23:22:39.266Z,39.03
2018-04-14T23:25:06.393Z,40.10
2018-04-14T23:27:33.438Z,37.97
2018-04-14T23:30:00.514Z,38.90
2018-04-14T23:32:27.638Z,39.03
2018-04-14T23:34:54.452Z,39.17
2018-04-14T23:37:21.541Z,39.88
2018-04-14T23:39:48.366Z,39.58
2018-04-14T23:42:15.177Z,39.65
2018-04-14T23:44:42.261Z,39.40
2018-04-14T23:47:09.112Z,56.20
2018-04-14T23:49:35.933Z,39.70
2018-04-14T23:52:02.785Z,39.70
2018-04-14T23:54:29.622Z,39.10
2018-04-14T23:56:56.446Z,40.42
2018-04-14T23:59:23.522Z,39.28
